createdAt,value
2022-08-26T00:02:16.627Z,19.43
2022-08-26T00:04:47.630Z,19.50
2022-08-26T00:07:14.643Z,19.17
2022-08-26T00:09:41.587Z,19.07
2022-08-26T00:12:14.290Z,20.10
2022-08-26T00:14:41.955Z,19.17
2022-08-26T00:17:08.972Z,19.00
2022-08-26T00:19:35.941Z,19.43
2022-08-26T00:22:02.813Z,19.50
2022-08-26T00:24:29.509Z,19.43
2022-08-26T00:26:58.217Z,19.60
2022-08-26T00:29:25.227Z,20.17
2022-08-26T00:31:52.077Z,19.67
2022-08-26T00:34:19.434Z,18.87
2022-08-26T00:36:46.549Z,20.33
2022-08-26T00:39:13.229Z,19.77
2022-08-26T00:41:40.099Z,20.00
2022-08-26T00:44:07.053Z,19.63
2022-08-26T00:46:34.892Z,20.60
2022-08-26T00:49:11.625Z,19.70
2022-08-26T00:51:50.477Z,20.17
2022-08-26T00:54:18.448Z,19.80
2022-08-26T00:56:45.392Z,19.73
2022-08-26T00:59:13.966Z,18.20
2022-08-26T01:04:28.697Z,18.37
2022-08-26T01:09:40.321Z,17.47
2022-08-26T01:12:07.841Z,17.20
2022-08-26T01:14:35.167Z,17.87
2022-08-26T01:17:05.104Z,16.93
2022-08-26T01:19:32.823Z,17.23
2022-08-26T01:22:00.348Z,17.23
2022-08-26T01:24:27.690Z,16.17
2022-08-26T01:29:41.558Z,16.37
2022-08-26T01:32:09.005Z,17.37
2022-08-26T01:34:36.873Z,17.30
2022-08-26T01:37:05.299Z,17.20
2022-08-26T01:42:17.305Z,16.53
2022-08-26T01:44:48.166Z,16.97
2022-08-26T01:47:15.128Z,15.83
2022-08-26T01:49:41.909Z,15.77
2022-08-26T01:52:08.835Z,15.80
2022-08-26T01:54:39.612Z,16.20
2022-08-26T01:57:08.025Z,15.67
2022-08-26T01:59:35.252Z,14.33
2022-08-26T02:02:02.052Z,14.70
2022-08-26T02:04:31.512Z,15.17
2022-08-26T02:06:59.465Z,13.57
2022-08-26T02:09:26.136Z,14.80
2022-08-26T02:11:53.577Z,14.17
2022-08-26T02:14:26.870Z,14.53
2022-08-26T02:16:54.046Z,14.43
2022-08-26T02:19:21.896Z,15.10
2022-08-26T02:21:51.353Z,14.70
2022-08-26T02:24:22.806Z,14.53
2022-08-26T02:26:50.361Z,13.60
2022-08-26T02:29:26.304Z,13.73
2022-08-26T02:31:53.512Z,13.13
2022-08-26T02:34:21.994Z,12.93
2022-08-26T02:36:49.407Z,11.70
2022-08-26T02:39:22.346Z,11.70
2022-08-26T02:41:49.382Z,12.33
2022-08-26T02:44:16.049Z,11.93
2022-08-26T02:46:44.508Z,11.83
2022-08-26T02:49:14.067Z,11.47
2022-08-26T02:51:40.818Z,11.77
2022-08-26T02:56:54.054Z,11.87
2022-08-26T02:59:24.451Z,11.03
2022-08-26T03:01:51.756Z,12.20
2022-08-26T03:04:18.589Z,11.07
2022-08-26T03:06:46.967Z,12.13
2022-08-26T03:09:19.375Z,12.43
2022-08-26T03:14:31.443Z,10.57
2022-08-26T03:16:58.344Z,11.17
2022-08-26T03:19:25.985Z,11.63
2022-08-26T03:21:57.998Z,10.97
2022-08-26T03:24:26.023Z,12.13
2022-08-26T03:26:53.202Z,11.20
2022-08-26T03:29:39.358Z,11.13
2022-08-26T03:32:06.218Z,11.47
2022-08-26T03:34:33.633Z,11.57
2022-08-26T03:37:00.563Z,11.00
2022-08-26T03:39:27.580Z,11.33
2022-08-26T03:41:58.973Z,11.47
2022-08-26T03:47:12.981Z,10.40
2022-08-26T03:49:39.928Z,11.07
2022-08-26T03:52:06.985Z,11.03
2022-08-26T03:54:33.765Z,11.40
2022-08-26T03:57:00.829Z,11.27
2022-08-26T03:59:28.069Z,11.40
2022-08-26T04:01:55.713Z,10.83
2022-08-26T04:04:24.382Z,11.73
2022-08-26T04:06:55.591Z,11.37
2022-08-26T04:09:22.420Z,11.73
2022-08-26T04:11:50.487Z,11.00
2022-08-26T04:14:21.933Z,12.90
2022-08-26T04:16:48.985Z,12.13
2022-08-26T04:19:15.840Z,13.37
2022-08-26T04:24:27.860Z,13.60
2022-08-26T04:29:41.528Z,14.10
2022-08-26T04:32:08.855Z,14.43
2022-08-26T04:41:15.491Z,14.27
2022-08-26T04:43:43.827Z,14.93
2022-08-26T04:46:12.947Z,16.27
2022-08-26T04:48:41.337Z,15.43
2022-08-26T04:51:08.759Z,16.60
2022-08-26T04:53:36.574Z,17.13
2022-08-26T04:56:03.896Z,15.93
2022-08-26T04:58:31.252Z,16.33
2022-08-26T05:00:58.592Z,16.83
2022-08-26T05:03:30.335Z,18.47
2022-08-26T05:05:57.826Z,18.43
2022-08-26T05:08:24.530Z,17.07
2022-08-26T05:10:54.696Z,18.13
2022-08-26T05:13:22.880Z,17.27
2022-08-26T05:15:49.771Z,16.87
2022-08-26T05:18:17.281Z,17.83
2022-08-26T05:23:34.627Z,16.57
2022-08-26T05:26:01.433Z,17.47
2022-08-26T05:28:31.931Z,17.60
2022-08-26T05:30:58.897Z,16.70
2022-08-26T05:33:25.930Z,16.00
2022-08-26T05:35:52.646Z,15.33
2022-08-26T05:38:20.176Z,16.40
2022-08-26T05:40:49.188Z,16.07
2022-08-26T05:43:20.055Z,15.87
2022-08-26T05:45:48.151Z,16.43
2022-08-26T05:48:16.424Z,17.10
2022-08-26T05:50:47.332Z,16.40
2022-08-26T05:53:14.821Z,17.50
2022-08-26T05:58:29.392Z,16.80
2022-08-26T06:00:56.936Z,17.13
2022-08-26T06:03:25.095Z,17.07
2022-08-26T06:05:51.875Z,16.93
2022-08-26T06:08:21.193Z,16.93
2022-08-26T06:11:06.548Z,17.90
2022-08-26T06:13:35.167Z,17.80
2022-08-26T06:16:03.618Z,17.37
2022-08-26T06:18:51.438Z,16.23
2022-08-26T06:21:18.442Z,14.97
2022-08-26T06:24:04.437Z,16.10
2022-08-26T06:26:31.479Z,17.20
2022-08-26T06:28:58.664Z,15.77
2022-08-26T06:31:26.258Z,14.83
2022-08-26T06:33:54.158Z,14.93
2022-08-26T06:36:25.699Z,14.90
2022-08-26T06:38:53.100Z,13.87
2022-08-26T06:41:21.233Z,13.43
2022-08-26T06:43:48.228Z,14.80
2022-08-26T06:49:01.340Z,15.27
2022-08-26T06:54:13.481Z,14.63
2022-08-26T06:56:41.152Z,13.30
2022-08-26T06:59:08.333Z,13.87
2022-08-26T07:01:37.420Z,14.00
2022-08-26T07:04:05.616Z,13.97
2022-08-26T07:06:40.812Z,14.30
2022-08-26T07:09:27.300Z,14.27
2022-08-26T07:11:56.414Z,13.77
2022-08-26T07:14:23.965Z,14.13
2022-08-26T07:16:52.879Z,13.10
2022-08-26T07:19:47.114Z,13.53
2022-08-26T07:28:38.589Z,13.57
2022-08-26T07:44:13.657Z,13.37
2022-08-26T07:47:04.083Z,14.70
2022-08-26T07:50:02.510Z,13.23
2022-08-26T07:52:29.901Z,13.33
2022-08-26T07:54:58.339Z,13.60
2022-08-26T07:57:26.356Z,13.97
2022-08-26T08:06:06.561Z,12.37
2022-08-26T08:08:35.684Z,12.73
2022-08-26T08:11:02.624Z,12.90
2022-08-26T08:13:30.097Z,12.73
2022-08-26T08:15:57.494Z,13.07
2022-08-26T08:18:24.503Z,13.37
2022-08-26T08:21:04.732Z,12.40
2022-08-26T08:23:32.433Z,12.37
2022-08-26T08:26:06.321Z,12.60
2022-08-26T08:28:36.836Z,13.07
2022-08-26T08:31:03.903Z,14.07
2022-08-26T08:33:32.118Z,13.67
2022-08-26T08:35:59.289Z,13.07
2022-08-26T08:38:26.451Z,12.87
2022-08-26T08:40:53.363Z,14.33
2022-08-26T08:43:26.693Z,14.03
2022-08-26T08:45:56.959Z,13.30
2022-08-26T08:48:29.937Z,12.27
2022-08-26T08:51:04.349Z,12.63
2022-08-26T08:53:33.871Z,12.90
2022-08-26T08:56:08.784Z,11.93
2022-08-26T08:58:44.703Z,10.23
2022-08-26T09:01:22.540Z,9.80
2022-08-26T09:04:11.012Z,10.20
2022-08-26T09:06:38.479Z,10.23
2022-08-26T09:09:08.983Z,10.23
2022-08-26T09:14:21.070Z,10.17
2022-08-26T09:16:52.276Z,9.90
2022-08-26T09:19:27.350Z,9.80
2022-08-26T09:21:57.892Z,9.67
2022-08-26T09:24:28.328Z,8.93
2022-08-26T09:26:58.354Z,8.83
2022-08-26T09:29:26.741Z,8.00
2022-08-26T09:32:13.307Z,8.30
2022-08-26T09:34:52.416Z,6.97
2022-08-26T09:37:32.631Z,7.30
2022-08-26T09:43:14.640Z,6.90
2022-08-26T09:48:32.534Z,6.80
2022-08-26T09:53:51.330Z,6.07
2022-08-26T09:56:35.054Z,6.57
2022-08-26T09:59:03.110Z,6.27
2022-08-26T10:04:31.450Z,6.20
2022-08-26T10:07:03.023Z,5.53
2022-08-26T10:09:48.333Z,4.77
2022-08-26T10:12:21.625Z,3.90
2022-08-26T10:14:48.979Z,5.00
2022-08-26T10:17:23.127Z,4.80
2022-08-26T10:19:59.794Z,3.40
2022-08-26T10:25:24.897Z,3.50
2022-08-26T10:28:04.576Z,3.70
2022-08-26T10:30:38.977Z,3.93
2022-08-26T10:33:12.014Z,3.70
2022-08-26T10:35:50.099Z,3.77
2022-08-26T10:38:18.931Z,3.70
2022-08-26T10:40:54.713Z,3.67
2022-08-26T10:43:33.917Z,4.00
2022-08-26T10:46:07.024Z,4.03
2022-08-26T10:48:37.125Z,4.30
2022-08-26T10:51:04.334Z,3.47
2022-08-26T10:53:51.367Z,3.77
2022-08-26T10:56:36.596Z,5.00
2022-08-26T10:59:06.693Z,4.17
2022-08-26T11:01:44.006Z,3.90
2022-08-26T11:04:22.417Z,4.27
2022-08-26T11:06:49.771Z,3.97
2022-08-26T11:12:39.144Z,3.93
2022-08-26T11:17:51.830Z,4.00
2022-08-26T11:20:23.917Z,4.10
2022-08-26T11:22:51.298Z,3.90
2022-08-26T11:25:18.744Z,4.00
2022-08-26T11:27:50.407Z,4.07
2022-08-26T11:30:18.391Z,4.20
2022-08-26T11:32:58.221Z,4.10
2022-08-26T11:35:25.043Z,4.30
2022-08-26T11:37:52.569Z,4.13
2022-08-26T11:40:21.829Z,4.27
2022-08-26T11:45:50.136Z,3.93
2022-08-26T11:48:21.394Z,3.87
2022-08-26T11:50:55.313Z,4.87
2022-08-26T11:53:24.299Z,3.70
2022-08-26T11:55:53.837Z,3.90
2022-08-26T11:58:21.064Z,4.37
2022-08-26T12:00:51.145Z,4.50
2022-08-26T12:03:19.579Z,4.13
2022-08-26T12:05:47.411Z,4.00
2022-08-26T12:08:16.384Z,3.30
2022-08-26T12:11:03.724Z,3.50
2022-08-26T12:13:30.927Z,3.40
2022-08-26T12:15:58.636Z,3.33
2022-08-26T12:18:38.396Z,3.20
2022-08-26T12:21:16.232Z,3.07
2022-08-26T12:23:46.998Z,3.30
2022-08-26T12:26:21.071Z,3.10
2022-08-26T12:28:52.078Z,3.20
2022-08-26T12:31:24.975Z,3.10
2022-08-26T12:33:53.030Z,2.90
2022-08-26T12:36:22.292Z,3.57
2022-08-26T12:38:50.131Z,3.47
2022-08-26T12:41:39.732Z,3.10
2022-08-26T12:44:07.699Z,3.10
2022-08-26T12:46:34.961Z,3.27
2022-08-26T12:49:03.180Z,3.10
2022-08-26T12:51:32.091Z,3.47
2022-08-26T12:53:59.229Z,2.97
2022-08-26T12:56:29.665Z,3.63
2022-08-26T13:02:00.313Z,3.60
2022-08-26T13:04:43.105Z,2.90
2022-08-26T13:07:14.789Z,3.27
2022-08-26T13:09:42.111Z,3.27
2022-08-26T13:14:56.558Z,3.43
2022-08-26T13:20:08.236Z,3.30
2022-08-26T13:22:35.176Z,3.40
2022-08-26T13:25:02.336Z,3.40
2022-08-26T13:27:29.319Z,3.60
2022-08-26T13:32:42.368Z,3.30
2022-08-26T13:37:55.669Z,3.40
2022-08-26T13:40:22.726Z,3.83
2022-08-26T13:42:50.278Z,3.40
2022-08-26T13:45:17.178Z,4.00
2022-08-26T13:47:44.904Z,3.50
2022-08-26T13:50:11.738Z,3.40
2022-08-26T13:52:38.580Z,3.20
2022-08-26T13:55:07.893Z,3.50
2022-08-26T13:57:35.080Z,3.47
2022-08-26T14:00:02.139Z,3.30
2022-08-26T14:02:37.336Z,3.47
2022-08-26T14:05:04.791Z,3.40
2022-08-26T14:07:31.837Z,3.50
2022-08-26T14:09:58.773Z,3.90
2022-08-26T14:12:25.813Z,3.50
2022-08-26T14:14:52.782Z,3.47
2022-08-26T14:17:20.788Z,3.50
2022-08-26T14:19:48.299Z,4.00
2022-08-26T14:22:18.921Z,3.67
2022-08-26T14:24:45.927Z,3.90
2022-08-26T14:27:12.993Z,5.17
2022-08-26T14:29:40.005Z,5.13
2022-08-26T14:32:09.934Z,4.67
2022-08-26T14:34:37.628Z,4.80
2022-08-26T14:37:07.766Z,4.30
2022-08-26T14:39:35.911Z,4.63
2022-08-26T14:42:02.834Z,4.63
2022-08-26T14:44:30.646Z,4.43
2022-08-26T14:49:44.451Z,4.03
2022-08-26T14:52:11.377Z,3.47
2022-08-26T14:54:39.084Z,3.87
2022-08-26T14:57:07.649Z,3.90
2022-08-26T14:59:36.607Z,3.80
2022-08-26T15:02:03.968Z,4.13
2022-08-26T15:04:31.483Z,3.57
2022-08-26T15:09:43.931Z,3.50
2022-08-26T15:12:10.872Z,3.33
2022-08-26T15:14:38.227Z,3.50
2022-08-26T15:17:05.417Z,5.30
2022-08-26T15:19:32.430Z,5.57
2022-08-26T15:21:59.323Z,5.87
2022-08-26T15:24:27.215Z,5.67
2022-08-26T15:26:54.124Z,5.03
2022-08-26T15:29:24.622Z,5.20
2022-08-26T15:31:51.415Z,4.93
2022-08-26T15:34:22.092Z,5.13
2022-08-26T15:36:48.889Z,5.50
2022-08-26T15:39:16.169Z,5.30
2022-08-26T15:41:43.086Z,6.07
2022-08-26T15:44:10.395Z,5.60
2022-08-26T15:46:37.701Z,5.40
2022-08-26T15:49:05.737Z,5.40
2022-08-26T15:51:45.142Z,5.10
2022-08-26T15:57:02.286Z,5.37
2022-08-26T15:59:31.682Z,5.50
2022-08-26T16:01:59.586Z,5.90
2022-08-26T16:04:29.232Z,5.30
2022-08-26T16:06:56.586Z,5.90
2022-08-26T16:09:24.521Z,5.50
2022-08-26T16:11:51.907Z,5.50
2022-08-26T16:14:18.886Z,5.97
2022-08-26T16:16:45.919Z,6.13
2022-08-26T16:19:16.930Z,6.37
2022-08-26T16:21:43.950Z,5.10
2022-08-26T16:24:11.128Z,5.93
2022-08-26T16:26:38.376Z,6.57
2022-08-26T16:29:06.828Z,6.60
2022-08-26T16:31:34.031Z,6.23
2022-08-26T16:34:00.935Z,6.27
2022-08-26T16:36:28.679Z,6.90
2022-08-26T16:38:56.539Z,6.87
2022-08-26T16:41:24.031Z,6.40
2022-08-26T16:43:51.123Z,6.43
2022-08-26T16:46:18.834Z,6.67
2022-08-26T16:48:45.833Z,6.87
2022-08-26T16:54:01.998Z,7.10
2022-08-26T16:56:34.098Z,7.77
2022-08-26T16:59:02.027Z,7.33
2022-08-26T17:01:28.869Z,7.37
2022-08-26T17:03:55.805Z,7.27
2022-08-26T17:06:23.720Z,7.80
2022-08-26T17:08:50.773Z,8.00
2022-08-26T17:11:17.831Z,7.30
2022-08-26T17:13:45.080Z,7.87
2022-08-26T17:16:12.315Z,7.23
2022-08-26T17:18:39.323Z,7.33
2022-08-26T17:21:07.660Z,7.03
2022-08-26T17:23:34.971Z,7.17
2022-08-26T17:26:02.204Z,8.07
2022-08-26T17:28:29.134Z,7.60
2022-08-26T17:30:57.102Z,7.97
2022-08-26T17:33:25.340Z,8.33
2022-08-26T17:35:54.898Z,7.47
2022-08-26T17:38:22.087Z,7.63
2022-08-26T17:40:50.383Z,7.47
2022-08-26T17:43:17.859Z,8.00
2022-08-26T17:45:44.585Z,7.80
2022-08-26T17:48:11.776Z,7.93
2022-08-26T17:50:39.361Z,7.47
2022-08-26T17:53:06.118Z,8.00
2022-08-26T17:58:20.060Z,8.03
2022-08-26T18:00:48.091Z,8.23
2022-08-26T18:03:14.995Z,7.87
2022-08-26T18:05:42.599Z,7.80
2022-08-26T18:10:56.217Z,7.20
2022-08-26T18:16:07.779Z,8.13
2022-08-26T18:18:34.874Z,8.90
2022-08-26T18:21:02.109Z,8.07
2022-08-26T18:23:28.863Z,8.30
2022-08-26T18:28:45.013Z,9.23
2022-08-26T18:33:58.367Z,10.40
2022-08-26T18:39:12.410Z,8.70
2022-08-26T18:44:30.230Z,10.40
2022-08-26T18:46:57.124Z,9.60
2022-08-26T18:49:24.043Z,8.93
2022-08-26T18:51:52.560Z,8.67
2022-08-26T18:57:03.927Z,8.93
2022-08-26T18:59:35.418Z,8.27
2022-08-26T19:02:02.819Z,8.90
2022-08-26T19:04:31.275Z,8.40
2022-08-26T19:06:58.094Z,8.33
2022-08-26T19:09:26.473Z,9.43
2022-08-26T19:14:21.476Z,9.30
2022-08-26T19:16:48.733Z,9.17
2022-08-26T19:19:16.007Z,8.53
2022-08-26T19:24:28.322Z,9.80
2022-08-26T19:26:57.558Z,9.27
2022-08-26T19:29:30.279Z,10.03
2022-08-26T19:31:58.198Z,10.30
2022-08-26T19:34:24.995Z,8.50
2022-08-26T19:36:53.331Z,10.93
2022-08-26T19:39:21.260Z,10.37
2022-08-26T19:41:48.417Z,9.40
2022-08-26T19:44:35.936Z,10.77
2022-08-26T19:47:03.780Z,10.40
2022-08-26T19:49:31.366Z,9.77
2022-08-26T19:51:58.350Z,10.10
2022-08-26T19:54:25.362Z,9.67
2022-08-26T19:56:52.535Z,9.60
2022-08-26T19:59:20.107Z,10.30
2022-08-26T20:02:00.434Z,9.73
2022-08-26T20:04:28.900Z,9.80
2022-08-26T20:07:00.321Z,8.53
2022-08-26T20:12:13.022Z,10.03
2022-08-26T20:14:40.192Z,10.90
2022-08-26T20:17:08.949Z,11.50
2022-08-26T20:19:55.593Z,9.70
2022-08-26T20:22:23.191Z,9.80
2022-08-26T20:24:54.525Z,10.63
2022-08-26T20:27:38.365Z,9.77
2022-08-26T20:30:06.049Z,10.17
2022-08-26T20:32:35.565Z,9.67
2022-08-26T20:35:03.116Z,11.10
2022-08-26T20:37:30.109Z,10.03
2022-08-26T20:39:57.581Z,10.97
2022-08-26T20:42:25.094Z,11.23
2022-08-26T20:44:54.775Z,13.20
2022-08-26T20:47:22.300Z,10.60
2022-08-26T20:49:50.702Z,10.97
2022-08-26T20:52:21.186Z,10.23
2022-08-26T20:57:32.975Z,11.27
2022-08-26T21:00:02.505Z,11.57
2022-08-26T21:02:29.560Z,10.30
2022-08-26T21:04:56.707Z,10.13
2022-08-26T21:07:24.635Z,10.13
2022-08-26T21:09:51.689Z,9.93
2022-08-26T21:12:18.828Z,10.77
2022-08-26T21:17:34.726Z,11.83
2022-08-26T21:22:47.784Z,12.10
2022-08-26T21:29:29.393Z,10.67
2022-08-26T21:31:57.960Z,11.97
2022-08-26T21:34:25.231Z,11.93
2022-08-26T21:36:53.340Z,11.30
2022-08-26T21:39:57.312Z,9.87
2022-08-26T21:48:17.890Z,12.57
2022-08-26T21:50:45.661Z,10.87
2022-08-26T21:53:15.588Z,12.87
2022-08-26T21:55:42.710Z,15.43
2022-08-26T21:58:10.016Z,23.33
2022-08-26T22:00:37.496Z,14.93
2022-08-26T22:03:04.599Z,15.07
2022-08-26T22:08:16.806Z,17.80
2022-08-26T22:10:43.944Z,17.83
2022-08-26T22:13:11.015Z,15.10
2022-08-26T22:15:40.654Z,16.40
2022-08-26T22:18:09.004Z,15.33
2022-08-26T22:20:36.922Z,13.73
2022-08-26T22:23:04.237Z,13.27
2022-08-26T22:25:31.278Z,12.17
2022-08-26T22:27:58.305Z,12.80
2022-08-26T22:30:25.265Z,12.00
2022-08-26T22:32:52.274Z,13.67
2022-08-26T22:35:29.135Z,12.87
2022-08-26T22:37:57.324Z,12.07
2022-08-26T22:40:24.551Z,12.10
2022-08-26T22:42:55.688Z,12.27
2022-08-26T22:45:27.714Z,11.20
2022-08-26T22:47:54.481Z,10.63
2022-08-26T22:50:21.326Z,11.70
2022-08-26T22:52:48.191Z,11.20
2022-08-26T22:55:15.106Z,11.33
2022-08-26T22:57:42.274Z,10.60
2022-08-26T23:02:56.394Z,11.07
2022-08-26T23:08:07.844Z,10.20
2022-08-26T23:13:18.709Z,10.10
2022-08-26T23:18:30.137Z,9.97
2022-08-26T23:20:57.098Z,9.90
2022-08-26T23:23:24.043Z,11.03
2022-08-26T23:25:50.766Z,10.77
2022-08-26T23:28:17.622Z,9.70
2022-08-26T23:30:44.365Z,10.67
2022-08-26T23:33:12.358Z,10.53
2022-08-26T23:35:40.622Z,10.10
2022-08-26T23:38:10.189Z,11.10
2022-08-26T23:40:40.912Z,9.60
2022-08-26T23:43:08.239Z,8.67
2022-08-26T23:45:35.117Z,9.40
2022-08-26T23:48:02.071Z,10.20
2022-08-26T23:50:49.393Z,8.93
2022-08-26T23:53:20.126Z,8.93
2022-08-26T23:55:48.348Z,10.13
2022-08-26T23:58:15.700Z,9.53
